Time;durP1;ratioP1;P1;durP2;ratioP2;P2;SDS_P1;SDS_P2;PMS_P1;PMS_P2;Temp;Humidity;BMP_temperature;BMP_pressure;BME280_temperature;BME280_humidity;BME280_pressure;Samples;Min_cycle;Max_cycle;Signal;HPM_P1;HPM_P2
2022/03/28 00:01:34;;;;;;;65.50;40.23;;;;;;;;;;5006073;28;21029;-36
2022/03/28 00:04:01;;;;;;;66.80;39.63;;;;;;;;;;5006965;28;20426;-35
2022/03/28 00:06:27;;;;;;;66.17;39.13;;;;;;;;;;5006683;28;20866;-36
2022/03/28 00:08:53;;;;;;;61.27;37.80;;;;;;;;;;5006449;28;21079;-36
2022/03/28 00:11:20;;;;;;;65.23;39.63;;;;;;;;;;5004654;28;20483;-36
2022/03/28 00:13:46;;;;;;;64.17;41.00;;;;;;;;;;5007175;28;20658;-35
2022/03/28 00:16:13;;;;;;;61.27;37.80;;;;;;;;;;5003558;28;20822;-36
2022/03/28 00:18:39;;;;;;;64.00;38.47;;;;;;;;;;5005102;28;20562;-36
2022/03/28 00:21:05;;;;;;;60.03;36.93;;;;;;;;;;5006579;28;20775;-37
2022/03/28 00:23:32;;;;;;;63.20;37.87;;;;;;;;;;5007006;28;20898;-37
2022/03/28 00:25:58;;;;;;;63.17;36.73;;;;;;;;;;5005858;28;21141;-36
2022/03/28 00:28:25;;;;;;;62.50;38.23;;;;;;;;;;5005115;28;20418;-36
2022/03/28 00:30:51;;;;;;;60.90;37.23;;;;;;;;;;5006510;28;20949;-37
2022/03/28 00:33:17;;;;;;;58.93;36.47;;;;;;;;;;5007719;28;20843;-37
2022/03/28 00:35:43;;;;;;;63.03;37.73;;;;;;;;;;5006748;28;20466;-37
2022/03/28 00:38:11;;;;;;;58.93;35.70;;;;;;;;;;5002468;28;20645;-36
2022/03/28 00:40:37;;;;;;;62.23;36.27;;;;;;;;;;5005287;28;20694;-37
2022/03/28 00:43:06;;;;;;;56.67;35.57;;;;;;;;;;5006481;28;20418;-37
2022/03/28 00:45:32;;;;;;;56.03;34.27;;;;;;;;;;5004513;28;20426;-37
2022/03/28 00:48:00;;;;;;;55.70;33.53;;;;;;;;;;5004526;28;20503;-37
2022/03/28 00:50:28;;;;;;;55.13;34.13;;;;;;;;;;5005338;28;20446;-37
2022/03/28 00:52:54;;;;;;;54.83;32.87;;;;;;;;;;5004547;28;21332;-37
2022/03/28 00:55:21;;;;;;;56.73;34.63;;;;;;;;;;5007736;28;20414;-37
2022/03/28 00:57:47;;;;;;;56.07;33.87;;;;;;;;;;5004654;28;20414;-37
2022/03/28 01:00:14;;;;;;;54.40;33.00;;;;;;;;;;5007542;28;20427;-37
2022/03/28 01:02:40;;;;;;;52.97;31.57;;;;;;;;;;5006783;28;20972;-37
2022/03/28 01:05:06;;;;;;;56.50;35.07;;;;;;;;;;5002769;28;20422;-36
2022/03/28 01:07:32;;;;;;;52.63;32.40;;;;;;;;;;5004515;28;20908;-37
2022/03/28 01:09:59;;;;;;;54.30;32.83;;;;;;;;;;5006983;28;20904;-37
2022/03/28 01:12:30;;;;;;;53.27;32.30;;;;;;;;;;5004835;28;20421;-37
2022/03/28 01:14:57;;;;;;;54.10;33.13;;;;;;;;;;5005038;28;20710;-36
2022/03/28 01:20:08;;;;;;;52.17;34.10;;;;;;;;;;5002770;28;20565;-37
2022/03/28 01:22:34;;;;;;;55.10;33.73;;;;;;;;;;5005344;28;20422;-37
2022/03/28 01:25:02;;;;;;;52.33;32.77;;;;;;;;;;5002909;28;20464;-36
2022/03/28 01:27:28;;;;;;;54.33;33.00;;;;;;;;;;5006701;28;20608;-36
2022/03/28 01:29:54;;;;;;;49.50;31.63;;;;;;;;;;5007355;28;20906;-36
2022/03/28 01:32:20;;;;;;;54.27;32.70;;;;;;;;;;5005901;28;20426;-36
2022/03/28 01:34:47;;;;;;;53.07;32.90;;;;;;;;;;5009005;28;20433;-36
2022/03/28 01:37:13;;;;;;;55.37;32.67;;;;;;;;;;5010637;28;20762;-36
2022/03/28 01:39:39;;;;;;;51.93;31.87;;;;;;;;;;5009134;28;20414;-36
2022/03/28 01:42:05;;;;;;;50.23;31.40;;;;;;;;;;5007856;28;20427;-37
2022/03/28 01:44:32;;;;;;;52.77;33.07;;;;;;;;;;5011497;28;20426;-36
2022/03/28 01:46:58;;;;;;;54.23;32.73;;;;;;;;;;5011491;28;20533;-37
2022/03/28 01:49:24;;;;;;;54.80;33.77;;;;;;;;;;5008443;28;20414;-37
2022/03/28 01:51:51;;;;;;;56.30;33.13;;;;;;;;;;5007145;28;20417;-36
2022/03/28 01:54:17;;;;;;;56.47;33.03;;;;;;;;;;5012046;28;20410;-36
2022/03/28 01:56:44;;;;;;;55.10;33.30;;;;;;;;;;5007508;28;21364;-36
2022/03/28 01:59:10;;;;;;;52.07;33.37;;;;;;;;;;5010230;28;20817;-36
2022/03/28 02:01:37;;;;;;;52.83;31.67;;;;;;;;;;5008373;28;20660;-36
2022/03/28 02:04:03;;;;;;;53.43;32.83;;;;;;;;;;5009525;28;20973;-36
2022/03/28 02:06:29;;;;;;;53.20;32.37;;;;;;;;;;5011457;28;21387;-36
2022/03/28 02:08:56;;;;;;;52.17;32.07;;;;;;;;;;5009967;28;21354;-37
2022/03/28 02:11:22;;;;;;;54.27;31.17;;;;;;;;;;5008215;28;20487;-36
2022/03/28 02:13:48;;;;;;;49.67;31.10;;;;;;;;;;5008855;28;21123;-37
2022/03/28 02:16:14;;;;;;;51.90;30.87;;;;;;;;;;5010487;28;20862;-36
2022/03/28 02:18:40;;;;;;;47.53;30.10;;;;;;;;;;5010134;28;20437;-37
2022/03/28 02:21:06;;;;;;;48.87;30.40;;;;;;;;;;5007924;28;20761;-37
2022/03/28 02:23:33;;;;;;;54.97;30.47;;;;;;;;;;5006944;28;20424;-37
2022/03/28 02:25:59;;;;;;;50.63;29.97;;;;;;;;;;5010126;28;21353;-37
2022/03/28 02:28:25;;;;;;;49.70;30.67;;;;;;;;;;5009856;28;20410;-36
2022/03/28 02:30:53;;;;;;;45.00;28.83;;;;;;;;;;5005650;28;20441;-37
2022/03/28 02:33:19;;;;;;;49.87;30.50;;;;;;;;;;5007303;28;20445;-37
2022/03/28 02:35:46;;;;;;;52.00;29.83;;;;;;;;;;5009254;28;20486;-37
2022/03/28 02:38:12;;;;;;;49.63;30.83;;;;;;;;;;5008678;28;20418;-37
2022/03/28 02:40:38;;;;;;;46.53;29.33;;;;;;;;;;5009852;28;20415;-37
2022/03/28 02:43:05;;;;;;;47.37;30.00;;;;;;;;;;5006199;28;20411;-37
2022/03/28 02:45:35;;;;;;;49.40;29.37;;;;;;;;;;5006725;28;20429;-36
2022/03/28 02:48:13;;;;;;;50.80;29.67;;;;;;;;;;5010641;28;20555;-37
2022/03/28 02:50:40;;;;;;;49.97;30.03;;;;;;;;;;5009401;28;20460;-36
2022/03/28 02:53:06;;;;;;;46.77;28.43;;;;;;;;;;5002459;28;20430;-37
2022/03/28 02:55:32;;;;;;;52.27;29.27;;;;;;;;;;5008087;28;20410;-37
2022/03/28 02:57:58;;;;;;;49.40;29.40;;;;;;;;;;5011315;28;20865;-37
2022/03/28 03:00:25;;;;;;;51.70;28.43;;;;;;;;;;5007785;28;20969;-37
2022/03/28 03:02:51;;;;;;;49.60;29.17;;;;;;;;;;5007999;28;20423;-36
2022/03/28 03:05:18;;;;;;;46.37;29.33;;;;;;;;;;5009806;28;20660;-37
2022/03/28 03:07:44;;;;;;;49.03;28.90;;;;;;;;;;5008728;28;20455;-37
2022/03/28 03:10:10;;;;;;;46.80;28.13;;;;;;;;;;5005412;28;20760;-37
2022/03/28 03:12:36;;;;;;;46.67;28.07;;;;;;;;;;5008878;28;20736;-37
2022/03/28 03:15:03;;;;;;;50.63;29.33;;;;;;;;;;5008427;28;20419;-37
2022/03/28 03:17:29;;;;;;;48.47;27.73;;;;;;;;;;5009887;28;21267;-37
2022/03/28 03:19:55;;;;;;;47.20;28.10;;;;;;;;;;5006409;28;20524;-37
2022/03/28 03:22:21;;;;;;;46.30;27.60;;;;;;;;;;4985673;28;20683;-37
2022/03/28 03:24:47;;;;;;;46.27;28.23;;;;;;;;;;5010009;28;20858;-36
2022/03/28 03:27:14;;;;;;;46.73;27.07;;;;;;;;;;5006132;28;20455;-37
2022/03/28 03:29:41;;;;;;;48.50;28.53;;;;;;;;;;5006125;28;20568;-36
2022/03/28 03:32:07;;;;;;;46.13;28.17;;;;;;;;;;5008304;28;20438;-37
2022/03/28 03:34:34;;;;;;;48.20;27.53;;;;;;;;;;5011373;28;20414;-37
2022/03/28 03:37:00;;;;;;;44.73;27.03;;;;;;;;;;5006176;28;20540;-36
2022/03/28 03:39:26;;;;;;;49.37;28.03;;;;;;;;;;5005761;28;20737;-37
2022/03/28 03:41:53;;;;;;;47.93;28.60;;;;;;;;;;5010122;28;20422;-37
2022/03/28 03:44:19;;;;;;;45.73;27.30;;;;;;;;;;5010386;28;20446;-37
2022/03/28 03:46:45;;;;;;;48.40;27.57;;;;;;;;;;5004941;28;20994;-37
2022/03/28 03:49:12;;;;;;;43.77;27.00;;;;;;;;;;5007440;28;20501;-37
2022/03/28 03:51:38;;;;;;;46.93;26.67;;;;;;;;;;5009474;28;20607;-36
2022/03/28 03:54:04;;;;;;;48.27;27.70;;;;;;;;;;5010531;28;20471;-37
2022/03/28 03:56:30;;;;;;;42.90;26.13;;;;;;;;;;5005848;28;21307;-37
2022/03/28 03:58:56;;;;;;;43.20;26.93;;;;;;;;;;5008311;28;20418;-37
2022/03/28 04:01:23;;;;;;;47.33;27.33;;;;;;;;;;5010746;28;20757;-36
2022/03/28 04:03:49;;;;;;;53.87;28.50;;;;;;;;;;5009400;28;20418;-37
2022/03/28 04:06:15;;;;;;;46.97;27.83;;;;;;;;;;5005757;28;21181;-37
2022/03/28 04:08:41;;;;;;;46.83;26.77;;;;;;;;;;5008601;28;20425;-37
2022/03/28 04:11:08;;;;;;;45.60;27.27;;;;;;;;;;5007242;28;21037;-36
2022/03/28 04:13:35;;;;;;;45.90;27.57;;;;;;;;;;5009486;28;20856;-35
2022/03/28 04:16:01;;;;;;;54.67;29.03;;;;;;;;;;5006607;28;20694;-35
2022/03/28 04:18:27;;;;;;;50.43;29.00;;;;;;;;;;5005772;28;20430;-35
2022/03/28 04:20:54;;;;;;;46.73;26.37;;;;;;;;;;5007606;28;20410;-35
2022/03/28 04:23:20;;;;;;;49.10;26.40;;;;;;;;;;5009010;28;20481;-35
2022/03/28 04:25:46;;;;;;;47.00;28.50;;;;;;;;;;5006073;28;21075;-35
2022/03/28 04:28:12;;;;;;;54.77;28.47;;;;;;;;;;5007701;28;20827;-35
2022/03/28 04:30:38;;;;;;;50.17;28.40;;;;;;;;;;5006520;28;20523;-35
2022/03/28 04:33:07;;;;;;;43.27;26.57;;;;;;;;;;5003989;28;20985;-35
2022/03/28 04:35:33;;;;;;;45.00;26.17;;;;;;;;;;5011311;28;20441;-35
2022/03/28 04:38:00;;;;;;;45.83;27.37;;;;;;;;;;5007178;28;20434;-36
2022/03/28 04:40:27;;;;;;;45.93;26.37;;;;;;;;;;5005862;28;21616;-36
2022/03/28 04:42:53;;;;;;;40.40;24.20;;;;;;;;;;5005724;28;20995;-37
2022/03/28 04:45:19;;;;;;;43.33;26.33;;;;;;;;;;5002543;28;20642;-36
2022/03/28 04:47:45;;;;;;;48.53;26.27;;;;;;;;;;5006350;28;20590;-37
2022/03/28 04:50:11;;;;;;;43.27;25.07;;;;;;;;;;5000962;28;20847;-37
2022/03/28 04:52:38;;;;;;;41.23;24.20;;;;;;;;;;4985748;28;20790;-37
2022/03/28 04:55:04;;;;;;;44.20;25.00;;;;;;;;;;5008668;28;20987;-35
2022/03/28 04:57:30;;;;;;;44.30;24.47;;;;;;;;;;5006988;28;20928;-36
2022/03/28 04:59:58;;;;;;;47.17;24.43;;;;;;;;;;5006079;28;20421;-36
2022/03/28 05:02:24;;;;;;;43.13;25.17;;;;;;;;;;5008755;28;20846;-36
2022/03/28 05:04:50;;;;;;;42.20;24.83;;;;;;;;;;5008732;28;20903;-35
2022/03/28 05:07:43;;;;;;;51.97;25.33;;;;;;;;;;4981695;28;20474;-35
2022/03/28 05:10:09;;;;;;;41.80;23.77;;;;;;;;;;5000049;28;20793;-36
2022/03/28 05:12:35;;;;;;;41.20;24.67;;;;;;;;;;5005095;28;21088;-36
2022/03/28 05:15:02;;;;;;;43.20;24.43;;;;;;;;;;5007112;28;20407;-36
2022/03/28 05:17:29;;;;;;;42.00;24.67;;;;;;;;;;4989491;28;21275;-36
2022/03/28 05:19:56;;;;;;;45.40;25.67;;;;;;;;;;4986139;28;20859;-36
2022/03/28 05:22:22;;;;;;;45.13;23.77;;;;;;;;;;4989233;28;20422;-36
2022/03/28 05:24:50;;;;;;;49.80;25.77;;;;;;;;;;4982010;28;20633;-36
2022/03/28 05:27:16;;;;;;;46.47;24.10;;;;;;;;;;4965292;28;21434;-37
2022/03/28 05:29:43;;;;;;;45.00;24.50;;;;;;;;;;4988849;28;20936;-36
2022/03/28 05:32:09;;;;;;;43.73;24.67;;;;;;;;;;4990743;28;20517;-36
2022/03/28 05:34:36;;;;;;;52.83;24.87;;;;;;;;;;5012308;28;20422;-36
2022/03/28 05:37:04;;;;;;;44.23;24.97;;;;;;;;;;5003397;28;21053;-37
2022/03/28 05:39:32;;;;;;;42.07;23.27;;;;;;;;;;5002846;28;21317;-37
2022/03/28 05:41:58;;;;;;;45.77;24.27;;;;;;;;;;5002752;28;20432;-37
2022/03/28 05:44:25;;;;;;;43.70;24.43;;;;;;;;;;5008039;28;20908;-37
2022/03/28 05:46:52;;;;;;;46.77;25.43;;;;;;;;;;4985115;28;20454;-37
2022/03/28 05:49:19;;;;;;;41.93;23.10;;;;;;;;;;4987749;28;20429;-36
2022/03/28 05:51:46;;;;;;;47.77;25.03;;;;;;;;;;5002576;28;20410;-36
2022/03/28 05:54:12;;;;;;;42.47;23.13;;;;;;;;;;4986038;28;20976;-37
2022/03/28 05:56:39;;;;;;;39.67;23.73;;;;;;;;;;4983352;28;20593;-37
2022/03/28 05:59:07;;;;;;;47.20;23.40;;;;;;;;;;4978366;28;20766;-37
2022/03/28 06:01:36;;;;;;;45.50;24.07;;;;;;;;;;5006690;28;20579;-36
2022/03/28 06:04:04;;;;;;;43.10;23.90;;;;;;;;;;4987662;28;20749;-37
2022/03/28 06:06:31;;;;;;;44.20;24.43;;;;;;;;;;5002243;28;20454;-36
2022/03/28 06:08:57;;;;;;;44.33;23.03;;;;;;;;;;5002907;28;20529;-36
2022/03/28 06:11:24;;;;;;;45.43;23.93;;;;;;;;;;4985945;28;21090;-37
2022/03/28 06:13:50;;;;;;;38.30;22.53;;;;;;;;;;4980102;28;20791;-37
2022/03/28 06:16:16;;;;;;;44.63;25.13;;;;;;;;;;5003846;28;20717;-36
2022/03/28 06:18:43;;;;;;;44.80;25.00;;;;;;;;;;5005686;28;21052;-36
2022/03/28 06:21:09;;;;;;;39.80;23.83;;;;;;;;;;4983739;28;20850;-36
2022/03/28 06:23:36;;;;;;;48.27;24.90;;;;;;;;;;4983893;28;21054;-37
2022/03/28 06:26:04;;;;;;;42.93;23.33;;;;;;;;;;5005809;28;21159;-37
2022/03/28 06:28:30;;;;;;;41.67;24.23;;;;;;;;;;4981060;28;20389;-36
2022/03/28 06:30:57;;;;;;;41.00;24.20;;;;;;;;;;4990266;28;20511;-37
2022/03/28 06:33:24;;;;;;;48.17;25.60;;;;;;;;;;4990209;28;20174;-36
2022/03/28 06:35:52;;;;;;;46.07;24.70;;;;;;;;;;4983041;28;20657;-37
2022/03/28 06:38:19;;;;;;;45.43;23.93;;;;;;;;;;5004862;28;20731;-37
2022/03/28 06:40:45;;;;;;;44.40;24.77;;;;;;;;;;4983074;28;20590;-37
2022/03/28 06:43:11;;;;;;;45.57;23.97;;;;;;;;;;5006590;28;20259;-36
2022/03/28 06:45:38;;;;;;;38.90;22.63;;;;;;;;;;5006527;28;20418;-36
2022/03/28 06:48:04;;;;;;;42.50;23.20;;;;;;;;;;5006033;28;20243;-37
2022/03/28 06:50:31;;;;;;;40.87;23.40;;;;;;;;;;5006320;28;20865;-37
2022/03/28 06:52:57;;;;;;;43.00;23.70;;;;;;;;;;5007864;28;20403;-37
2022/03/28 06:55:23;;;;;;;37.80;22.47;;;;;;;;;;5007695;28;20534;-37
2022/03/28 06:57:51;;;;;;;41.73;23.00;;;;;;;;;;5006626;28;20647;-38
2022/03/28 07:00:17;;;;;;;42.93;24.10;;;;;;;;;;5007903;28;20541;-37
2022/03/28 07:02:44;;;;;;;38.80;22.47;;;;;;;;;;5010579;28;20275;-37
2022/03/28 07:05:10;;;;;;;42.07;22.60;;;;;;;;;;5008296;28;20623;-37
2022/03/28 07:07:44;;;;;;;42.37;23.87;;;;;;;;;;5005791;28;20204;-37
2022/03/28 07:10:14;;;;;;;39.87;22.37;;;;;;;;;;4993599;28;20405;-38
2022/03/28 07:12:41;;;;;;;38.20;22.53;;;;;;;;;;5007950;28;20625;-37
2022/03/28 07:15:09;;;;;;;48.73;22.03;;;;;;;;;;4988897;28;20320;-36
2022/03/28 07:17:45;;;;;;;39.90;23.03;;;;;;;;;;5007178;28;20168;-36
2022/03/28 07:20:11;;;;;;;38.77;22.23;;;;;;;;;;5009777;28;20928;-36
2022/03/28 07:22:38;;;;;;;38.57;22.93;;;;;;;;;;5007873;28;20245;-37
2022/03/28 07:25:04;;;;;;;39.53;22.87;;;;;;;;;;4990479;28;20916;-37
2022/03/28 07:27:35;;;;;;;41.00;23.57;;;;;;;;;;4986432;28;20310;-37
2022/03/28 07:30:02;;;;;;;41.83;24.10;;;;;;;;;;4986839;28;20597;-37
2022/03/28 07:32:28;;;;;;;43.93;24.07;;;;;;;;;;5004914;28;20218;-37
2022/03/28 07:34:55;;;;;;;41.87;23.83;;;;;;;;;;5007704;28;20806;-37
2022/03/28 07:37:22;;;;;;;43.97;24.23;;;;;;;;;;4984174;28;20545;-37
2022/03/28 07:39:48;;;;;;;41.67;24.67;;;;;;;;;;4988658;28;20407;-37
2022/03/28 07:42:15;;;;;;;45.47;24.53;;;;;;;;;;4982894;28;20294;-37
2022/03/28 07:44:44;;;;;;;48.13;24.83;;;;;;;;;;4989224;28;20458;-37
2022/03/28 07:47:11;;;;;;;47.97;26.60;;;;;;;;;;4986628;28;20199;-37
2022/03/28 07:49:40;;;;;;;41.70;23.90;;;;;;;;;;4988657;28;20996;-37
2022/03/28 07:52:10;;;;;;;40.60;24.17;;;;;;;;;;5004680;28;20176;-37
2022/03/28 07:54:36;;;;;;;45.70;26.87;;;;;;;;;;5006973;28;20184;-38
2022/03/28 07:57:03;;;;;;;40.10;24.60;;;;;;;;;;5003327;28;20180;-37
2022/03/28 07:59:30;;;;;;;42.83;25.57;;;;;;;;;;5007714;28;20199;-37
2022/03/28 08:01:56;;;;;;;41.70;25.83;;;;;;;;;;4985629;28;20169;-37
2022/03/28 08:04:22;;;;;;;44.30;26.47;;;;;;;;;;5007427;28;20180;-37
2022/03/28 08:06:50;;;;;;;49.90;27.57;;;;;;;;;;4987483;28;21222;-38
2022/03/28 08:09:17;;;;;;;46.37;27.63;;;;;;;;;;5005415;28;20434;-37
2022/03/28 08:11:46;;;;;;;49.73;29.20;;;;;;;;;;4989666;28;20812;-37
2022/03/28 08:14:12;;;;;;;48.47;27.33;;;;;;;;;;4988385;28;20199;-38
2022/03/28 08:16:38;;;;;;;45.77;27.00;;;;;;;;;;4989279;28;20183;-37
2022/03/28 08:19:05;;;;;;;48.70;27.93;;;;;;;;;;5006405;28;20372;-37
2022/03/28 08:21:31;;;;;;;51.43;29.97;;;;;;;;;;4991674;28;20184;-37
2022/03/28 08:23:57;;;;;;;50.57;28.80;;;;;;;;;;5007027;28;20334;-38
2022/03/28 08:26:25;;;;;;;48.27;28.93;;;;;;;;;;5005208;28;20230;-38
2022/03/28 08:28:52;;;;;;;49.07;28.60;;;;;;;;;;5007081;28;20257;-37
2022/03/28 08:31:18;;;;;;;49.27;28.40;;;;;;;;;;5007720;28;20188;-36
2022/03/28 08:33:45;;;;;;;49.23;29.27;;;;;;;;;;4989156;28;20600;-37
2022/03/28 08:36:11;;;;;;;53.47;29.63;;;;;;;;;;5006023;28;20172;-37
2022/03/28 08:38:39;;;;;;;60.87;30.30;;;;;;;;;;5006903;28;20206;-38
2022/03/28 08:41:11;;;;;;;46.63;28.63;;;;;;;;;;5006155;28;20245;-38
2022/03/28 08:43:37;;;;;;;51.33;29.10;;;;;;;;;;4982057;28;20248;-37
2022/03/28 08:46:04;;;;;;;57.30;31.43;;;;;;;;;;5007050;28;20409;-37
2022/03/28 08:48:37;;;;;;;51.00;31.13;;;;;;;;;;4989731;28;20498;-37
2022/03/28 08:51:03;;;;;;;58.10;32.63;;;;;;;;;;5005732;28;20309;-37
2022/03/28 08:53:29;;;;;;;54.93;33.57;;;;;;;;;;5005424;28;20231;-38
2022/03/28 08:55:56;;;;;;;51.07;32.17;;;;;;;;;;5008967;28;20207;-37
2022/03/28 08:58:41;;;;;;;58.97;34.00;;;;;;;;;;5008102;28;20708;-37
2022/03/28 09:01:07;;;;;;;60.70;34.73;;;;;;;;;;5005227;28;20172;-37
2022/03/28 09:03:36;;;;;;;60.53;34.20;;;;;;;;;;5006453;28;20510;-38
2022/03/28 09:06:22;;;;;;;54.67;33.60;;;;;;;;;;5005704;28;20971;-37
2022/03/28 09:08:48;;;;;;;61.90;36.43;;;;;;;;;;5007155;28;20180;-38
2022/03/28 09:11:21;;;;;;;54.97;33.23;;;;;;;;;;4987587;28;20715;-36
2022/03/28 09:13:48;;;;;;;52.67;33.10;;;;;;;;;;4988902;28;20184;-37
2022/03/28 09:16:20;;;;;;;56.77;36.30;;;;;;;;;;5005833;28;20172;-37
2022/03/28 09:18:47;;;;;;;58.63;35.17;;;;;;;;;;5006175;28;20521;-37
2022/03/28 09:21:17;;;;;;;65.10;35.77;;;;;;;;;;5005697;28;20176;-37
2022/03/28 09:23:46;;;;;;;61.20;35.13;;;;;;;;;;5003812;28;20199;-36
2022/03/28 09:26:16;;;;;;;75.47;31.87;;;;;;;;;;4981382;28;20173;-37
2022/03/28 09:28:50;;;;;;;48.03;31.50;;;;;;;;;;4991551;28;20433;-38
2022/03/28 09:31:16;;;;;;;55.83;35.00;;;;;;;;;;5010040;28;20180;-38
2022/03/28 09:34:01;;;;;;;57.40;34.80;;;;;;;;;;4990955;28;20177;-37
2022/03/28 09:36:38;;;;;;;54.03;32.83;;;;;;;;;;5004077;28;20296;-37
2022/03/28 09:39:05;;;;;;;51.83;31.97;;;;;;;;;;5005447;28;20722;-37
2022/03/28 09:41:32;;;;;;;48.33;31.97;;;;;;;;;;5006815;28;20172;-37
2022/03/28 09:43:58;;;;;;;53.77;34.20;;;;;;;;;;4985064;28;20411;-38
2022/03/28 09:46:25;;;;;;;54.30;32.57;;;;;;;;;;5003145;28;20160;-38
2022/03/28 09:49:10;;;;;;;52.17;34.40;;;;;;;;;;5004552;28;20202;-37
2022/03/28 09:51:36;;;;;;;55.73;32.67;;;;;;;;;;5003283;28;20545;-38
2022/03/28 09:54:03;;;;;;;53.70;33.83;;;;;;;;;;4983836;28;20488;-37
2022/03/28 09:56:32;;;;;;;52.70;33.20;;;;;;;;;;4997548;28;20225;-37
2022/03/28 09:59:04;;;;;;;52.20;33.63;;;;;;;;;;5025310;28;20192;-37
2022/03/28 10:01:32;;;;;;;58.37;33.97;;;;;;;;;;5021531;28;20457;-37
2022/03/28 10:04:05;;;;;;;57.73;34.20;;;;;;;;;;5017625;28;20200;-37
2022/03/28 10:06:31;;;;;;;51.07;33.30;;;;;;;;;;4986279;28;20184;-38
2022/03/28 10:08:58;;;;;;;55.53;33.67;;;;;;;;;;5010919;28;20263;-37
2022/03/28 10:11:28;;;;;;;54.47;33.47;;;;;;;;;;4987474;28;20187;-37
2022/03/28 10:13:55;;;;;;;52.73;33.03;;;;;;;;;;4989369;28;20728;-37
2022/03/28 10:16:21;;;;;;;53.53;34.50;;;;;;;;;;4988040;28;20573;-37
2022/03/28 10:18:50;;;;;;;55.33;35.03;;;;;;;;;;4989051;28;20184;-37
2022/03/28 10:21:17;;;;;;;57.60;33.83;;;;;;;;;;5008453;28;20411;-36
2022/03/28 10:23:47;;;;;;;49.73;31.87;;;;;;;;;;5007025;28;20247;-37
2022/03/28 10:26:13;;;;;;;51.47;32.87;;;;;;;;;;5005586;28;20747;-37
2022/03/28 10:28:39;;;;;;;51.07;31.17;;;;;;;;;;5007236;28;20211;-37
2022/03/28 10:31:13;;;;;;;50.33;30.50;;;;;;;;;;5008396;28;20755;-37
2022/03/28 10:33:47;;;;;;;43.93;27.67;;;;;;;;;;5010204;28;20878;-37
2022/03/28 10:36:25;;;;;;;41.87;27.87;;;;;;;;;;5005050;28;20172;-38
2022/03/28 10:38:52;;;;;;;51.43;32.57;;;;;;;;;;4989262;28;20298;-38
2022/03/28 10:41:19;;;;;;;42.77;28.87;;;;;;;;;;4987657;28;20729;-37
2022/03/28 10:43:47;;;;;;;42.47;28.50;;;;;;;;;;5007384;28;20975;-38
2022/03/28 10:46:14;;;;;;;48.03;27.60;;;;;;;;;;5008998;28;20247;-37
2022/03/28 10:48:40;;;;;;;47.23;29.67;;;;;;;;;;5007247;28;20537;-38
2022/03/28 10:51:11;;;;;;;47.07;30.13;;;;;;;;;;4987871;28;20188;-38
2022/03/28 10:53:57;;;;;;;40.50;25.40;;;;;;;;;;4983585;28;20815;-38
2022/03/28 10:56:28;;;;;;;32.40;21.90;;;;;;;;;;4996680;28;20267;-37
2022/03/28 10:58:55;;;;;;;38.53;25.37;;;;;;;;;;4985279;28;20302;-37
2022/03/28 11:01:26;;;;;;;41.60;26.67;;;;;;;;;;4999376;28;20278;-38
2022/03/28 11:04:22;;;;;;;36.70;24.60;;;;;;;;;;5005829;28;20265;-37
2022/03/28 11:07:03;;;;;;;38.17;25.10;;;;;;;;;;4987464;28;20294;-37
2022/03/28 11:09:34;;;;;;;38.50;24.13;;;;;;;;;;4987619;28;20279;-38
2022/03/28 11:12:01;;;;;;;42.37;25.93;;;;;;;;;;5004832;28;20359;-37
2022/03/28 11:14:41;;;;;;;37.00;25.30;;;;;;;;;;5008283;28;20299;-37
2022/03/28 11:17:15;;;;;;;40.50;25.60;;;;;;;;;;4990733;28;21111;-37
2022/03/28 11:19:53;;;;;;;39.13;25.17;;;;;;;;;;5005287;28;20724;-37
2022/03/28 11:22:40;;;;;;;40.33;25.00;;;;;;;;;;5004916;28;20278;-37
2022/03/28 11:25:25;;;;;;;50.70;29.93;;;;;;;;;;5007631;28;20633;-37
2022/03/28 11:28:21;;;;;;;47.03;30.23;;;;;;;;;;5005377;28;20751;-38
2022/03/28 11:30:55;;;;;;;48.87;31.37;;;;;;;;;;4987094;28;20277;-38
2022/03/28 11:33:23;;;;;;;49.93;30.30;;;;;;;;;;4985806;28;20300;-37
2022/03/28 11:35:53;;;;;;;48.97;29.57;;;;;;;;;;5006221;28;20176;-37
2022/03/28 11:38:21;;;;;;;41.53;26.83;;;;;;;;;;4983547;28;20223;-37
2022/03/28 11:40:48;;;;;;;43.33;27.07;;;;;;;;;;5005919;28;20521;-37
2022/03/28 11:43:14;;;;;;;42.50;26.70;;;;;;;;;;4990390;28;20203;-37
2022/03/28 11:45:50;;;;;;;43.33;25.87;;;;;;;;;;4988950;28;20203;-37
2022/03/28 11:48:18;;;;;;;38.20;23.47;;;;;;;;;;5005688;28;20789;-37
2022/03/28 11:50:44;;;;;;;41.73;26.10;;;;;;;;;;5003230;28;20262;-37
2022/03/28 11:53:14;;;;;;;42.67;26.07;;;;;;;;;;4984851;28;20172;-36
2022/03/28 11:55:46;;;;;;;42.80;26.80;;;;;;;;;;4988713;28;20271;-37
2022/03/28 11:58:15;;;;;;;39.03;25.30;;;;;;;;;;5005369;28;20900;-37
2022/03/28 12:00:43;;;;;;;38.73;23.13;;;;;;;;;;4988097;28;20571;-37
2022/03/28 12:03:13;;;;;;;32.20;20.97;;;;;;;;;;5008727;28;20208;-36
2022/03/28 12:05:49;;;;;;;41.73;23.37;;;;;;;;;;4985905;28;20358;-39
2022/03/28 12:08:19;;;;;;;36.50;23.10;;;;;;;;;;5006247;28;20584;-37
2022/03/28 12:10:49;;;;;;;37.10;23.87;;;;;;;;;;5004813;28;20824;-37
2022/03/28 12:13:16;;;;;;;37.83;25.30;;;;;;;;;;4988483;28;20475;-36
2022/03/28 12:15:45;;;;;;;38.47;25.37;;;;;;;;;;5008611;28;20612;-36
2022/03/28 12:18:12;;;;;;;35.40;23.33;;;;;;;;;;5005549;28;20335;-36
2022/03/28 12:20:39;;;;;;;36.80;23.60;;;;;;;;;;5006865;28;20538;-36
2022/03/28 12:23:06;;;;;;;41.17;23.87;;;;;;;;;;4992898;28;20188;-37
2022/03/28 12:25:35;;;;;;;37.47;24.60;;;;;;;;;;4981246;28;20229;-37
2022/03/28 12:28:03;;;;;;;39.73;24.00;;;;;;;;;;5005413;28;20202;-37
2022/03/28 12:30:49;;;;;;;34.77;23.30;;;;;;;;;;4992402;28;20179;-37
2022/03/28 12:33:17;;;;;;;31.80;21.83;;;;;;;;;;4987075;28;20789;-37
2022/03/28 12:35:50;;;;;;;31.93;20.50;;;;;;;;;;4985704;28;21019;-37
2022/03/28 12:38:21;;;;;;;31.90;20.70;;;;;;;;;;5006357;28;20368;-37
2022/03/28 12:40:51;;;;;;;27.80;18.73;;;;;;;;;;5007447;28;20836;-37
2022/03/28 12:43:17;;;;;;;30.30;19.17;;;;;;;;;;5002737;28;20574;-37
2022/03/28 12:45:44;;;;;;;33.77;20.50;;;;;;;;;;5007412;28;21167;-37
2022/03/28 12:48:14;;;;;;;31.73;20.43;;;;;;;;;;5004771;28;20201;-37
2022/03/28 12:50:54;;;;;;;31.47;19.73;;;;;;;;;;5005949;28;20176;-38
2022/03/28 12:53:23;;;;;;;26.77;19.03;;;;;;;;;;5006249;28;20279;-37
2022/03/28 12:55:49;;;;;;;25.83;18.47;;;;;;;;;;4978751;28;20498;-38
2022/03/28 12:58:15;;;;;;;26.90;17.60;;;;;;;;;;5002199;28;20889;-37
2022/03/28 13:00:42;;;;;;;23.60;16.67;;;;;;;;;;5006121;28;20589;-37
2022/03/28 13:03:09;;;;;;;31.60;20.47;;;;;;;;;;5007181;28;20547;-38
2022/03/28 13:05:36;;;;;;;31.47;21.13;;;;;;;;;;5004412;28;20594;-38
2022/03/28 13:08:10;;;;;;;30.80;21.23;;;;;;;;;;5003904;28;20204;-38
2022/03/28 13:10:38;;;;;;;31.10;22.20;;;;;;;;;;4995896;28;20179;-37
2022/03/28 13:13:05;;;;;;;30.97;22.33;;;;;;;;;;5003940;28;20182;-37
2022/03/28 13:15:35;;;;;;;31.00;19.67;;;;;;;;;;5003404;28;20617;-37
2022/03/28 13:18:05;;;;;;;28.50;17.93;;;;;;;;;;5005049;28;20203;-37
2022/03/28 13:20:31;;;;;;;23.67;16.07;;;;;;;;;;5004880;28;20184;-37
2022/03/28 13:22:59;;;;;;;27.33;18.93;;;;;;;;;;5006244;28;20510;-37
2022/03/28 13:25:29;;;;;;;30.70;20.57;;;;;;;;;;4986628;28;20207;-39
2022/03/28 13:28:02;;;;;;;29.57;20.80;;;;;;;;;;5002849;28;20311;-37
2022/03/28 13:30:41;;;;;;;29.03;20.73;;;;;;;;;;5003506;28;20183;-37
2022/03/28 13:33:11;;;;;;;25.77;18.43;;;;;;;;;;5003523;28;20207;-38
2022/03/28 13:35:37;;;;;;;27.30;18.03;;;;;;;;;;4984019;28;20196;-37
2022/03/28 13:38:04;;;;;;;23.73;16.70;;;;;;;;;;5003103;28;20672;-37
2022/03/28 13:41:02;;;;;;;28.77;19.90;;;;;;;;;;4990612;28;20694;-37
2022/03/28 13:43:28;;;;;;;26.93;19.00;;;;;;;;;;5004343;28;21240;-37
2022/03/28 13:45:54;;;;;;;26.60;18.67;;;;;;;;;;5005149;28;20180;-37
2022/03/28 13:48:22;;;;;;;27.10;18.93;;;;;;;;;;5007077;28;20882;-37
2022/03/28 13:50:58;;;;;;;30.00;19.10;;;;;;;;;;5001982;28;20466;-37
2022/03/28 13:53:24;;;;;;;25.83;18.60;;;;;;;;;;4999542;28;20187;-37
2022/03/28 13:55:51;;;;;;;26.17;18.30;;;;;;;;;;5007175;28;20215;-36
2022/03/28 13:58:17;;;;;;;32.23;18.60;;;;;;;;;;5003176;28;20184;-37
2022/03/28 14:00:43;;;;;;;23.77;18.47;;;;;;;;;;5003491;28;20302;-36
2022/03/28 14:03:17;;;;;;;27.73;18.40;;;;;;;;;;4987316;28;20180;-37
2022/03/28 14:05:52;;;;;;;24.93;18.57;;;;;;;;;;4988120;28;20192;-36
2022/03/28 14:08:22;;;;;;;25.77;18.30;;;;;;;;;;5003931;28;20321;-37
2022/03/28 14:10:48;;;;;;;24.87;18.53;;;;;;;;;;5003531;28;20211;-36
2022/03/28 14:13:15;;;;;;;27.20;18.90;;;;;;;;;;5002905;28;20187;-36
2022/03/28 14:18:29;;;;;;;29.27;20.00;;;;;;;;;;4990040;28;20549;-37
2022/03/28 14:20:56;;;;;;;30.43;20.23;;;;;;;;;;5003360;28;20200;-37
2022/03/28 14:23:23;;;;;;;26.43;17.97;;;;;;;;;;5005803;28;20184;-36
2022/03/28 14:25:52;;;;;;;23.90;17.40;;;;;;;;;;5005819;28;20501;-37
2022/03/28 14:28:22;;;;;;;28.10;17.10;;;;;;;;;;5008004;28;20258;-36